This is the latest recevied weather packets stored in our database for station/object KY0TEQ-13. If no packets are shown the sender has not sent any weather packets the latest 10 day(s).
| Time | Temp. | Humidity | Pressure | Rain* | Wind** | Luminosity | Snow |
|---|---|---|---|---|---|---|---|
| 1788510519 | 13.33° C | 59% | 1307.2 hPa | 0 mm | - | 0 W/m² | - |
| 1788510213 | 15° C | 53% | 1307.2 hPa | 0 mm | - | 0 W/m² | - |
| 1788509908 | 14.44° C | 55% | 1307.2 hPa | 0 mm | - | 0 W/m² | - |
| 1788509604 | 14.44° C | 55% | 1307.1 hPa | 0 mm | - | 0 W/m² | - |
| 1788509300 | 13.33° C | 57% | 1307.4 hPa | 0 mm | - | 0 W/m² | - |
| 1788508996 | 13.33° C | 60% | 1307.4 hPa | 0 mm | - | 0 W/m² | - |
| 1788508692 | 13.89° C | 57% | 1307.2 hPa | 0 mm | - | 0 W/m² | - |
| 1788508392 | 13.89° C | 56% | 1307.6 hPa | 0 mm | - | 0 W/m² | - |
| 1788508091 | 15° C | 54% | 1307.4 hPa | 0 mm | - | 0 W/m² | - |
| 1788507786 | 15.56° C | 52% | 1307.4 hPa | 0 mm | - | 0 W/m² | - |
| 1788507482 | 15° C | 54% | 1307.6 hPa | 0 mm | - | 0 W/m² | - |
| 1788507177 | 15° C | 54% | 1307.4 hPa | 0 mm | - | 0 W/m² | - |
| 1788506873 | 15.56° C | 52% | 1307.4 hPa | 0 mm | - | 0 W/m² | - |
| 1788506572 | 16.11° C | 52% | 1307.6 hPa | 0 mm | - | 0 W/m² | - |
| 1788506268 | 16.11° C | 50% | 1307.6 hPa | 0 mm | - | 0 W/m² | - |
| 1788505963 | 15.56° C | 52% | 1307.4 hPa | 0 mm | - | 0 W/m² | - |
| 1788505657 | 16.67° C | 49% | 1307.6 hPa | 0 mm | - | 0 W/m² | - |
| 1788505356 | 16.67° C | 49% | 1307.4 hPa | 0 mm | - | 0 W/m² | - |
| 1788505051 | 16.11° C | 48% | 1307.3 hPa | 0 mm | - | 0 W/m² | - |
| 1788504749 | 16.11° C | 48% | 1307.4 hPa | 0 mm | - | 0 W/m² | - |
| 1788504448 | 16.67° C | 47% | 1307.4 hPa | 0 mm | - | 0 W/m² | - |
| 1788504143 | 16.67° C | 47% | 1307.4 hPa | 0 mm | - | 0 W/m² | - |
| 1788503840 | 16.67° C | 47% | 1307.2 hPa | 0 mm | - | 0 W/m² | - |
| 1788503535 | 16.67° C | 46% | 1307.4 hPa | 0 mm | - | 0 W/m² | - |
| 1788503231 | 17.22° C | 45% | 1307.3 hPa | 0 mm | - | 0 W/m² | - |
* Rain latest hour (hover to see other rain measurements)
** Current wind speed in m/s (hover to see current wind gust speed)